SCX19 KMSP-KSRQ
Flight info
| Callsign | SCX19 |
|---|---|
| Flight time | N/A |
| Altitude | 35000 |
| Route | ZMBRO7 ODI J30 BRIBE/N0447F360 EDENS/N0443F350 ENL PLESS Q19 DENNI/N0441F370 Q19 HITMN ACORI BANGZ2 |
| Aircraft | B738/M-SDE2E3FGHIRWXY/LB1 |
Departure
| Time | 2026-05-05 00:36 |
|---|---|
| Airport | Minneapolis–Saint Paul International Airport / Wold–Chamberlain Field (KMSP) |
Arrival
| Time | N/A |
|---|---|
| Airport | Sarasota Bradenton International Airport (KSRQ) |
| Time | Latitude | Longitude | Altitude | Speed | Heading |
|---|---|---|---|---|---|
| 2026-05-05 00:09 | 44.87403 | -93.22983 | 824 ft | 0 kts | 135° |
| 2026-05-05 00:23 | 44.87417 | -93.23002 | 819 ft | 4 kts | 135° |
| 2026-05-05 00:23 | 44.87436 | -93.23029 | 824 ft | 4 kts | 129° |
| 2026-05-05 00:24 | 44.87450 | -93.23061 | 821 ft | 4 kts | 107° |
| 2026-05-05 00:24 | 44.87452 | -93.23096 | 820 ft | 4 kts | 66° |
| 2026-05-05 00:24 | 44.87445 | -93.23113 | 822 ft | 1 kts | 45° |
| 2026-05-05 00:24 | 44.87443 | -93.23115 | 821 ft | 0 kts | 45° |
| 2026-05-05 00:28 | 44.87444 | -93.23114 | 821 ft | 1 kts | 45° |
| 2026-05-05 00:28 | 44.87468 | -93.23081 | 824 ft | 8 kts | 45° |
| 2026-05-05 00:28 | 44.87527 | -93.22998 | 824 ft | 15 kts | 45° |
| 2026-05-05 00:29 | 44.87603 | -93.22893 | 824 ft | 15 kts | 44° |
| 2026-05-05 00:29 | 44.87675 | -93.22792 | 821 ft | 15 kts | 45° |
| 2026-05-05 00:29 | 44.87744 | -93.22693 | 824 ft | 14 kts | 45° |
| 2026-05-05 00:29 | 44.87813 | -93.22597 | 823 ft | 14 kts | 45° |
| 2026-05-05 00:30 | 44.87892 | -93.22485 | 824 ft | 18 kts | 45° |
| 2026-05-05 00:30 | 44.87991 | -93.22342 | 824 ft | 22 kts | 46° |
| 2026-05-05 00:30 | 44.88078 | -93.22211 | 821 ft | 13 kts | 53° |
| 2026-05-05 00:30 | 44.88077 | -93.22092 | 824 ft | 13 kts | 121° |
| 2026-05-05 00:31 | 44.88031 | -93.21985 | 821 ft | 13 kts | 121° |
| 2026-05-05 00:31 | 44.87981 | -93.21868 | 824 ft | 15 kts | 121° |
| 2026-05-05 00:31 | 44.87921 | -93.21729 | 823 ft | 18 kts | 121° |
| 2026-05-05 00:31 | 44.87848 | -93.21560 | 823 ft | 22 kts | 121° |
| 2026-05-05 00:32 | 44.87762 | -93.21364 | 822 ft | 25 kts | 121° |
| 2026-05-05 00:32 | 44.87667 | -93.21142 | 824 ft | 28 kts | 121° |
| 2026-05-05 00:32 | 44.87567 | -93.20915 | 821 ft | 26 kts | 121° |
| 2026-05-05 00:32 | 44.87475 | -93.20715 | 824 ft | 24 kts | 137° |
| 2026-05-05 00:33 | 44.87352 | -93.20574 | 824 ft | 23 kts | 123° |
| 2026-05-05 00:33 | 44.87288 | -93.20417 | 824 ft | 17 kts | 120° |
| 2026-05-05 00:33 | 44.87234 | -93.20285 | 823 ft | 13 kts | 105° |
| 2026-05-05 00:33 | 44.87286 | -93.20194 | 825 ft | 13 kts | 31° |
| 2026-05-05 00:34 | 44.87343 | -93.20146 | 826 ft | 7 kts | 27° |
| 2026-05-05 00:34 | 44.87376 | -93.20171 | 826 ft | 4 kts | 300° |
| 2026-05-05 00:34 | 44.87377 | -93.20174 | 826 ft | 0 kts | 301° |
| 2026-05-05 00:35 | 44.87378 | -93.20176 | 826 ft | 2 kts | 301° |
| 2026-05-05 00:35 | 44.87478 | -93.20407 | 824 ft | 64 kts | 301° |
| 2026-05-05 00:35 | 44.87830 | -93.21224 | 824 ft | 129 kts | 302° |
| 2026-05-05 00:35 | 44.88371 | -93.22481 | 1103 ft | 159 kts | 302° |
| 2026-05-05 00:36 | 44.88974 | -93.23876 | 1840 ft | 168 kts | 304° |
| 2026-05-05 00:36 | 44.89582 | -93.25223 | 2858 ft | 166 kts | 303° |
| 2026-05-05 00:36 | 44.90238 | -93.26708 | 3193 ft | 192 kts | 300° |
| 2026-05-05 00:36 | 44.90539 | -93.28647 | 3535 ft | 216 kts | 271° |
| 2026-05-05 00:37 | 44.90192 | -93.30759 | 4134 ft | 231 kts | 251° |
| 2026-05-05 00:37 | 44.89148 | -93.32668 | 4495 ft | 262 kts | 223° |
| 2026-05-05 00:37 | 44.87450 | -93.33744 | 5343 ft | 276 kts | 194° |
| 2026-05-05 00:37 | 44.85497 | -93.33623 | 6123 ft | 291 kts | 165° |
| 2026-05-05 00:38 | 44.83742 | -93.32224 | 6881 ft | 299 kts | 141° |
| 2026-05-05 00:38 | 44.82248 | -93.30091 | 7651 ft | 306 kts | 133° |
| 2026-05-05 00:38 | 44.80866 | -93.27811 | 8310 ft | 314 kts | 132° |
| 2026-05-05 00:38 | 44.79442 | -93.25404 | 9048 ft | 319 kts | 133° |
| 2026-05-05 00:39 | 44.78023 | -93.23031 | 9778 ft | 324 kts | 134° |
| 2026-05-05 00:39 | 44.76520 | -93.20561 | 10359 ft | 334 kts | 135° |
| 2026-05-05 00:39 | 44.74940 | -93.18009 | 10546 ft | 357 kts | 135° |
| 2026-05-05 00:39 | 44.73276 | -93.15355 | 10865 ft | 373 kts | 135° |
| 2026-05-05 00:40 | 44.71538 | -93.12592 | 11470 ft | 380 kts | 135° |
| 2026-05-05 00:40 | 44.69771 | -93.09795 | 12154 ft | 385 kts | 136° |
| 2026-05-05 00:40 | 44.67985 | -93.06976 | 12840 ft | 389 kts | 136° |
| 2026-05-05 00:40 | 44.66171 | -93.04120 | 13518 ft | 394 kts | 137° |
| 2026-05-05 00:41 | 44.64335 | -93.01236 | 14163 ft | 397 kts | 137° |
| 2026-05-05 00:41 | 44.62479 | -92.98327 | 14713 ft | 403 kts | 138° |
| 2026-05-05 00:41 | 44.60596 | -92.95377 | 15282 ft | 408 kts | 138° |
| 2026-05-05 00:41 | 44.58689 | -92.92394 | 15858 ft | 413 kts | 139° |
| 2026-05-05 00:42 | 44.56758 | -92.89375 | 16432 ft | 417 kts | 139° |
| 2026-05-05 00:42 | 44.54820 | -92.86343 | 17062 ft | 420 kts | 139° |
| 2026-05-05 00:42 | 44.52855 | -92.83276 | 17640 ft | 425 kts | 140° |
| 2026-05-05 00:42 | 44.50867 | -92.80174 | 18177 ft | 429 kts | 140° |
| 2026-05-05 00:43 | 44.48864 | -92.77055 | 18698 ft | 432 kts | 140° |
| 2026-05-05 00:43 | 44.46850 | -92.73914 | 19260 ft | 435 kts | 139° |
| 2026-05-05 00:43 | 44.44995 | -92.70500 | 19775 ft | 447 kts | 129° |
| 2026-05-05 00:43 | 44.43386 | -92.66758 | 20316 ft | 452 kts | 127° |
| 2026-05-05 00:44 | 44.41814 | -92.62931 | 20870 ft | 454 kts | 126° |
| 2026-05-05 00:44 | 44.40256 | -92.59146 | 21370 ft | 457 kts | 127° |
| 2026-05-05 00:44 | 44.38645 | -92.55302 | 21816 ft | 459 kts | 127° |
| 2026-05-05 00:44 | 44.37016 | -92.51476 | 22396 ft | 459 kts | 127° |
| 2026-05-05 00:45 | 44.35366 | -92.47635 | 22884 ft | 463 kts | 128° |
| 2026-05-05 00:45 | 44.33696 | -92.43764 | 23298 ft | 467 kts | 128° |
| 2026-05-05 00:45 | 44.32013 | -92.39870 | 23677 ft | 470 kts | 128° |
| 2026-05-05 00:45 | 44.30318 | -92.35953 | 24069 ft | 472 kts | 128° |
| 2026-05-05 00:46 | 44.28611 | -92.32009 | 24454 ft | 475 kts | 128° |
| 2026-05-05 00:46 | 44.26897 | -92.28054 | 24817 ft | 478 kts | 128° |
| 2026-05-05 00:46 | 44.25171 | -92.24075 | 25202 ft | 480 kts | 128° |
| 2026-05-05 00:46 | 44.23436 | -92.20079 | 25561 ft | 483 kts | 128° |
| 2026-05-05 00:47 | 44.21689 | -92.16060 | 25900 ft | 486 kts | 128° |
| 2026-05-05 00:47 | 44.19930 | -92.12019 | 26208 ft | 488 kts | 127° |
| 2026-05-05 00:47 | 44.18167 | -92.07973 | 26641 ft | 488 kts | 127° |
| 2026-05-05 00:47 | 44.16417 | -92.03962 | 26984 ft | 491 kts | 127° |
| 2026-05-05 00:48 | 44.14612 | -91.99835 | 27280 ft | 495 kts | 127° |
| 2026-05-05 00:48 | 44.12814 | -91.95731 | 27579 ft | 498 kts | 127° |
| 2026-05-05 00:48 | 44.11029 | -91.91661 | 27904 ft | 500 kts | 127° |
| 2026-05-05 00:48 | 44.09216 | -91.87531 | 28263 ft | 502 kts | 127° |
| 2026-05-05 00:49 | 44.07393 | -91.83383 | 28597 ft | 503 kts | 127° |
| 2026-05-05 00:49 | 44.05560 | -91.79219 | 28895 ft | 506 kts | 127° |
| 2026-05-05 00:49 | 44.03715 | -91.75036 | 29189 ft | 508 kts | 127° |
| 2026-05-05 00:49 | 44.01862 | -91.70839 | 29472 ft | 511 kts | 128° |
| 2026-05-05 00:50 | 44.00006 | -91.66641 | 29751 ft | 512 kts | 127° |
| 2026-05-05 00:50 | 43.98142 | -91.62428 | 30048 ft | 512 kts | 127° |
| 2026-05-05 00:50 | 43.96268 | -91.58203 | 30276 ft | 514 kts | 127° |
| 2026-05-05 00:50 | 43.94384 | -91.53960 | 30474 ft | 517 kts | 127° |
| 2026-05-05 00:51 | 43.92489 | -91.49701 | 30667 ft | 518 kts | 128° |
| 2026-05-05 00:51 | 43.90441 | -91.45618 | 30930 ft | 512 kts | 136° |
| 2026-05-05 00:51 | 43.88042 | -91.42037 | 31266 ft | 503 kts | 142° |
| 2026-05-05 00:51 | 43.85572 | -91.38622 | 31606 ft | 502 kts | 143° |
| 2026-05-05 00:52 | 43.83086 | -91.35225 | 31872 ft | 502 kts | 143° |
| 2026-05-05 00:52 | 43.80605 | -91.31830 | 32098 ft | 502 kts | 142° |
| 2026-05-05 00:52 | 43.78138 | -91.28427 | 32412 ft | 501 kts | 142° |
| 2026-05-05 00:52 | 43.75680 | -91.25013 | 32725 ft | 500 kts | 142° |
| 2026-05-05 00:53 | 43.73265 | -91.21644 | 32989 ft | 500 kts | 142° |
| 2026-05-05 00:53 | 43.70811 | -91.18234 | 33255 ft | 499 kts | 143° |
| 2026-05-05 00:53 | 43.68341 | -91.14872 | 33491 ft | 500 kts | 142° |
| 2026-05-05 00:53 | 43.65897 | -91.11457 | 33788 ft | 499 kts | 142° |
| 2026-05-05 00:54 | 43.63472 | -91.08042 | 34067 ft | 497 kts | 141° |
| 2026-05-05 00:54 | 43.61054 | -91.04644 | 34250 ft | 496 kts | 141° |
| 2026-05-05 00:54 | 43.58628 | -91.01251 | 34456 ft | 496 kts | 141° |
| 2026-05-05 00:54 | 43.56201 | -90.97872 | 34657 ft | 496 kts | 141° |
| 2026-05-05 00:55 | 43.53768 | -90.94499 | 34818 ft | 497 kts | 141° |
| 2026-05-05 00:55 | 43.51322 | -90.91116 | 34961 ft | 498 kts | 141° |
| 2026-05-05 00:55 | 43.48872 | -90.87733 | 35150 ft | 498 kts | 141° |
| 2026-05-05 00:55 | 43.46429 | -90.84363 | 35367 ft | 497 kts | 141° |
| 2026-05-05 00:56 | 43.43981 | -90.80988 | 35573 ft | 497 kts | 141° |
| 2026-05-05 00:56 | 43.41541 | -90.77629 | 35732 ft | 497 kts | 141° |
| 2026-05-05 00:56 | 43.39100 | -90.74272 | 35959 ft | 495 kts | 141° |
| 2026-05-05 00:56 | 43.36673 | -90.70936 | 36256 ft | 492 kts | 141° |
| 2026-05-05 00:57 | 43.34254 | -90.67616 | 36427 ft | 492 kts | 141° |
| 2026-05-05 00:57 | 43.31825 | -90.64290 | 36544 ft | 493 kts | 141° |
| 2026-05-05 00:57 | 43.29389 | -90.60958 | 36637 ft | 495 kts | 141° |
| 2026-05-05 00:58 | 43.24496 | -90.54274 | 36637 ft | 496 kts | 140° |
| 2026-05-05 00:58 | 43.19621 | -90.47624 | 36631 ft | 492 kts | 140° |
| 2026-05-05 00:59 | 43.14784 | -90.41043 | 36603 ft | 489 kts | 141° |
| 2026-05-05 00:59 | 43.09955 | -90.34500 | 36609 ft | 487 kts | 141° |
| 2026-05-05 01:00 | 43.05172 | -90.28043 | 36604 ft | 486 kts | 141° |
| 2026-05-05 01:00 | 43.00363 | -90.21562 | 36589 ft | 485 kts | 141° |
| 2026-05-05 01:01 | 42.95551 | -90.15089 | 36597 ft | 486 kts | 141° |
| 2026-05-05 01:01 | 42.90723 | -90.08610 | 36596 ft | 487 kts | 141° |
| 2026-05-05 01:02 | 42.85882 | -90.02125 | 36604 ft | 489 kts | 141° |
| 2026-05-05 01:02 | 42.80728 | -89.96231 | 36574 ft | 474 kts | 161° |
| 2026-05-05 01:02 | 42.77695 | -89.94717 | 36606 ft | 459 kts | 175° |
| 2026-05-05 01:03 | 42.75632 | -89.94247 | 36580 ft | 450 kts | 184° |
| 2026-05-05 01:03 | 42.69484 | -89.94524 | 36596 ft | 441 kts | 192° |
| 2026-05-05 01:04 | 42.63343 | -89.95040 | 36599 ft | 443 kts | 191° |
| 2026-05-05 01:04 | 42.54069 | -89.95717 | 36588 ft | 446 kts | 191° |
| 2026-05-05 01:05 | 42.47864 | -89.96128 | 36600 ft | 447 kts | 191° |
| 2026-05-05 01:05 | 42.41638 | -89.96534 | 36597 ft | 448 kts | 191° |
| 2026-05-05 01:06 | 42.35410 | -89.96940 | 36599 ft | 448 kts | 190° |
| 2026-05-05 01:06 | 42.29180 | -89.97347 | 36603 ft | 448 kts | 190° |
| 2026-05-05 01:07 | 42.22960 | -89.97753 | 36606 ft | 447 kts | 190° |
| 2026-05-05 01:07 | 42.16753 | -89.98158 | 36594 ft | 446 kts | 190° |
| 2026-05-05 01:08 | 42.10556 | -89.98561 | 36596 ft | 445 kts | 190° |
| 2026-05-05 01:08 | 42.04375 | -89.98962 | 36604 ft | 444 kts | 190° |
| 2026-05-05 01:09 | 41.98231 | -89.99361 | 36567 ft | 444 kts | 190° |
| 2026-05-05 01:09 | 41.92034 | -89.99763 | 36595 ft | 443 kts | 190° |
| 2026-05-05 01:10 | 41.85915 | -90.00158 | 36620 ft | 443 kts | 190° |
| 2026-05-05 01:10 | 41.79758 | -90.00555 | 36621 ft | 443 kts | 190° |
| 2026-05-05 01:11 | 41.73557 | -90.00955 | 36606 ft | 444 kts | 190° |
| 2026-05-05 01:11 | 41.67421 | -90.01349 | 36613 ft | 445 kts | 190° |
| 2026-05-05 01:12 | 41.61239 | -90.01746 | 36620 ft | 446 kts | 190° |
| 2026-05-05 01:12 | 41.55027 | -90.02144 | 36577 ft | 447 kts | 189° |
| 2026-05-05 01:13 | 41.48804 | -90.02541 | 36597 ft | 448 kts | 189° |
| 2026-05-05 01:13 | 41.42572 | -90.02938 | 36600 ft | 449 kts | 189° |
| 2026-05-05 01:14 | 41.36319 | -90.03335 | 36598 ft | 450 kts | 189° |
| 2026-05-05 01:14 | 41.30057 | -90.03732 | 36596 ft | 450 kts | 189° |
| 2026-05-05 01:15 | 41.23789 | -90.04129 | 36592 ft | 450 kts | 189° |
| 2026-05-05 01:15 | 41.17527 | -90.04526 | 36593 ft | 451 kts | 189° |
| 2026-05-05 01:16 | 41.11243 | -90.04647 | 36578 ft | 457 kts | 180° |
| 2026-05-05 01:16 | 41.05011 | -90.02831 | 36617 ft | 464 kts | 171° |
| 2026-05-05 01:17 | 40.98780 | -90.00592 | 36595 ft | 464 kts | 171° |
| 2026-05-05 01:17 | 40.92553 | -89.98390 | 36590 ft | 462 kts | 170° |
| 2026-05-05 01:18 | 40.86346 | -89.96248 | 36597 ft | 459 kts | 171° |
| 2026-05-05 01:18 | 40.80172 | -89.94143 | 36593 ft | 457 kts | 171° |
| 2026-05-05 01:19 | 40.74021 | -89.92054 | 36624 ft | 455 kts | 171° |
| 2026-05-05 01:19 | 40.67899 | -89.89977 | 36631 ft | 453 kts | 171° |
| 2026-05-05 01:20 | 40.61798 | -89.87910 | 36637 ft | 452 kts | 171° |
| 2026-05-05 01:20 | 40.55713 | -89.85852 | 36638 ft | 451 kts | 171° |
| 2026-05-05 01:21 | 40.49641 | -89.83803 | 36636 ft | 451 kts | 171° |
| 2026-05-05 01:21 | 40.43556 | -89.81753 | 36626 ft | 451 kts | 171° |
| 2026-05-05 01:22 | 40.37464 | -89.79704 | 36638 ft | 453 kts | 171° |
| 2026-05-05 01:22 | 40.31345 | -89.77651 | 36635 ft | 455 kts | 171° |
| 2026-05-05 01:23 | 40.25202 | -89.75593 | 36612 ft | 457 kts | 171° |
| 2026-05-05 01:23 | 40.19076 | -89.73544 | 36648 ft | 458 kts | 171° |
| 2026-05-05 01:24 | 40.12878 | -89.71475 | 36654 ft | 460 kts | 171° |
| 2026-05-05 01:24 | 40.06662 | -89.69403 | 36656 ft | 462 kts | 171° |
| 2026-05-05 01:25 | 40.00420 | -89.67327 | 36647 ft | 463 kts | 171° |
| 2026-05-05 01:25 | 39.94159 | -89.65248 | 36661 ft | 464 kts | 171° |
| 2026-05-05 01:26 | 39.87898 | -89.63173 | 36669 ft | 464 kts | 171° |
| 2026-05-05 01:26 | 39.81633 | -89.61101 | 36665 ft | 465 kts | 171° |
| 2026-05-05 01:27 | 39.75377 | -89.59035 | 36670 ft | 464 kts | 172° |
| 2026-05-05 01:27 | 39.69114 | -89.56972 | 36667 ft | 464 kts | 172° |
| 2026-05-05 01:28 | 39.62861 | -89.54915 | 36686 ft | 464 kts | 172° |
| 2026-05-05 01:28 | 39.56605 | -89.52862 | 36659 ft | 464 kts | 172° |
| 2026-05-05 01:29 | 39.50348 | -89.50812 | 36690 ft | 464 kts | 172° |
| 2026-05-05 01:29 | 39.44076 | -89.48762 | 36702 ft | 465 kts | 172° |
| 2026-05-05 01:30 | 39.37791 | -89.46711 | 36698 ft | 467 kts | 172° |
| 2026-05-05 01:30 | 39.31478 | -89.44654 | 36688 ft | 468 kts | 172° |
| 2026-05-05 01:31 | 39.25184 | -89.42608 | 36703 ft | 471 kts | 172° |
| 2026-05-05 01:31 | 39.18822 | -89.40544 | 36716 ft | 473 kts | 172° |
| 2026-05-05 01:32 | 39.12414 | -89.38468 | 36715 ft | 476 kts | 172° |
| 2026-05-05 01:32 | 39.05982 | -89.36388 | 36713 ft | 478 kts | 172° |
| 2026-05-05 01:33 | 38.99508 | -89.34297 | 36719 ft | 480 kts | 172° |
| 2026-05-05 01:33 | 38.93012 | -89.32204 | 36726 ft | 482 kts | 172° |
| 2026-05-05 01:34 | 38.86495 | -89.30108 | 36684 ft | 483 kts | 172° |
| 2026-05-05 01:34 | 38.79966 | -89.28012 | 36715 ft | 484 kts | 172° |
| 2026-05-05 01:35 | 38.73421 | -89.25915 | 36736 ft | 485 kts | 172° |
| 2026-05-05 01:35 | 38.66860 | -89.23817 | 36757 ft | 486 kts | 172° |
| 2026-05-05 01:36 | 38.60313 | -89.21726 | 36742 ft | 482 kts | 172° |
| 2026-05-05 01:36 | 38.53867 | -89.19670 | 36755 ft | 479 kts | 172° |
| 2026-05-05 01:37 | 38.47416 | -89.17619 | 36760 ft | 477 kts | 172° |
| 2026-05-05 01:37 | 38.40987 | -89.15578 | 36761 ft | 476 kts | 172° |
| 2026-05-05 01:38 | 38.34567 | -89.13508 | 36757 ft | 476 kts | 172° |
| 2026-05-05 01:38 | 38.28141 | -89.11425 | 36760 ft | 477 kts | 172° |
| 2026-05-05 01:39 | 38.21697 | -89.09344 | 36758 ft | 479 kts | 172° |
| 2026-05-05 01:39 | 38.15225 | -89.07260 | 36753 ft | 481 kts | 173° |
| 2026-05-05 01:40 | 38.08716 | -89.05169 | 36774 ft | 484 kts | 173° |
| 2026-05-05 01:40 | 38.02155 | -89.03065 | 36779 ft | 488 kts | 173° |
| 2026-05-05 01:41 | 37.95542 | -89.00947 | 36806 ft | 492 kts | 173° |
| 2026-05-05 01:41 | 37.88882 | -88.98816 | 36810 ft | 495 kts | 173° |